Flight Track Log - Related Links

Times and Time Zones

All times are in EDT time to prevent confusion due to time zone crossing. See the SWA2403 flight status page for this flight to view local times or setup timezone preferences in your user account.

Time Position Orientation Groundspeed Altitude Reporting Facility
EDT Latitude Longitude Course Direction KTS MPH feet Rate Location/Type
Tue 11:04:27 AM 29.5200 -98.4569 136° Southeast 150 173 2,000  Level Houston Center
Tue 11:04:52 AM 29.5083 -98.4442 136° Southeast 154 177 2,500 1,694 Climbing Houston Center
Tue 11:05:52 AM 29.4900 -98.3839 109° East 240 276 4,400 1,704 Climbing Houston Center
Tue 11:06:13 AM 29.5039 -98.3556 61° Northeast 251 289 4,800 2,024 Climbing Houston Center
Tue 11:07:15 AM 29.5411 -98.2725 63° Northeast 292 336 7,200 2,806 Climbing Houston Center
Tue 11:08:17 AM 29.5814 -98.1783 64° Northeast 304 350 10,600 2,758 Climbing Houston Center
Tue 11:09:19 AM 29.6247 -98.0794 63° Northeast 353 406 12,900 2,468 Climbing Houston Center
Tue 11:10:21 AM 29.6508 -97.9589 76° East 368 423 15,700 2,419 Climbing Houston Center
Tue 11:11:23 AM 29.6528 -97.8431 89° East 391 450 17,900 2,419 Climbing Houston Center
Tue 11:12:25 AM 29.6556 -97.6922 89° East 418 481 20,700 2,419 Climbing Houston Center
Tue 11:13:27 AM 29.6561 -97.5542 90° East 428 493 22,900 2,129 Climbing Houston Center
Tue 11:14:29 AM 29.6742 -97.4125 82° East 453 521 25,100 2,000 Climbing Houston Center
Tue 11:15:30 AM 29.7622 -97.3031 47° Northeast 464 534 27,000 1,694 Climbing Houston Center
Tue 11:16:33 AM 29.8536 -97.1867 48° Northeast 482 555 28,600 1,548 Climbing Houston Center
Tue 11:17:34 AM 29.9489 -97.0689 47° Northeast 496 571 30,200 1,463 Climbing Houston Center
Tue 11:18:36 AM 30.0464 -96.9494 47° Northeast 506 582 31,600 1,452 Climbing Houston Center
Tue 11:19:38 AM 30.1517 -96.8181 47° Northeast 515 593 33,200 1,645 Climbing Houston Center
Tue 11:20:40 AM 30.2500 -96.6950 47° Northeast 518 596 35,000 1,597 Climbing Houston Center
Tue 11:21:42 AM 30.3633 -96.5517 47° Northeast 515 593 36,500 968 Climbing Houston Center
Tue 11:22:44 AM 30.4603 -96.4303 47° Northeast 512 589 37,000 240 Climbing Houston Center
Tue 11:23:47 AM 30.5569 -96.3092 47° Northeast 510 587 37,000  Level Houston Center
Tue 11:24:49 AM 30.6533 -96.1881 47° Northeast 508 585 37,000  Level Houston Center
Tue 11:25:51 AM 30.7467 -96.0681 48° Northeast 497 572 37,000  Level Houston Center
Tue 11:26:53 AM 30.8417 -95.9500 47° Northeast 506 582 37,000  Level Houston Center
Tue 11:27:55 AM 30.9567 -95.8053 47° Northeast 506 582 37,000  Level Houston Center
Tue 11:28:57 AM 31.0522 -95.6822 48° Northeast 507 583 37,000  Level Houston Center
Tue 11:29:59 AM 31.1486 -95.5611 47° Northeast 502 578 37,000  Level Houston Center
Tue 11:31:01 AM 31.2339 -95.4283 53° Northeast 503 579 37,000  Level Houston Center
Tue 11:31:27 AM 31.2800 -95.3569 53° Northeast 510 587 37,000  Level Fort Center
Tue 11:32:27 AM 31.3533 -95.2411 53° Northeast 498 573 37,000  Level Fort Center
Tue 11:33:27 AM 31.4367 -95.1100 53° Northeast 498 573 37,000  Level Fort Center
Tue 11:34:27 AM 31.5197 -94.9789 53° Northeast 498 573 37,000  Level Fort Center
Tue 11:35:10 AM 31.5872 -94.8636 55° Northeast 508 585 37,000  Level Houston Center
Tue 11:36:12 AM 31.6692 -94.7311 54° Northeast 499 574 37,000  Level Houston Center
Tue 11:36:27 AM 31.6833 -94.7083 54° Northeast 504 580 37,000  Level Fort Center
Tue 11:37:27 AM 31.7742 -94.5617 54° Northeast 504 580 37,000  Level Fort Center
Tue 11:38:27 AM 31.8544 -94.4294 54° Northeast 504 580 37,000  Level Fort Center
Tue 11:39:27 AM 31.9347 -94.2972 54° Northeast 504 580 37,000  Level Fort Center
Tue 11:40:27 AM 32.0169 -94.1669 53° Northeast 504 580 37,000  Level Fort Center
Tue 11:41:27 AM 32.0969 -94.0317 55° Northeast 504 580 37,000  Level Fort Center
Tue 11:42:27 AM 32.1811 -93.8986 53° Northeast 504 580 37,000  Level Fort Center
Tue 11:43:27 AM 32.2483 -93.7706 58° Northeast 509 586 37,000  Level Fort Center
Tue 11:44:27 AM 32.3300 -93.6347 55° Northeast 504 580 37,000  Level Fort Center
Tue 11:45:27 AM 32.4214 -93.4856 54° Northeast 509 586 37,000  Level Fort Center
Tue 11:46:27 AM 32.5047 -93.3467 55° Northeast 509 586 37,000 450 Level Fort Center
Tue 11:47:27 AM 32.5878 -93.2072 55° Northeast 509 586 37,900 900 Climbing Fort Center
Tue 11:48:27 AM 32.6728 -93.0650 55° Northeast 514 592 38,800 550 Climbing Fort Center
Tue 11:49:27 AM 32.7575 -92.9250 54° Northeast 514 592 39,000 100 Climbing Fort Center
Tue 11:50:27 AM 32.8381 -92.7875 55° Northeast 514 592 39,000  Level Fort Center
Tue 11:51:27 AM 32.9225 -92.6447 55° Northeast 514 592 39,000  Level Fort Center
Tue 11:52:27 AM 33.0028 -92.5067 55° Northeast 509 586 39,000  Level Fort Center
Tue 11:54:53 AM 33.2017 -92.1672 55° Northeast 497 572 39,000  Level Memphis Center
Tue 11:55:53 AM 33.2831 -92.0272 55° Northeast 508 585 39,000  Level Memphis Center
Tue 11:56:53 AM 33.3661 -91.8819 56° Northeast 513 590 39,000  Level Memphis Center
Tue 11:57:53 AM 33.4492 -91.7439 54° Northeast 513 590 39,000  Level Memphis Center
Tue 11:58:53 AM 33.5131 -91.6156 59° Northeast 502 578 39,000  Level Memphis Center
Tue 11:59:53 AM 33.5958 -91.4744 55° Northeast 502 578 39,000  Level Memphis Center
Tue 12:00:53 PM 33.6764 -91.3333 56° Northeast 508 585 39,000  Level Memphis Center
Tue 12:01:53 PM 33.7547 -91.1942 56° Northeast 508 585 39,000  Level Memphis Center
Tue 12:02:53 PM 33.8411 -91.0350 57° Northeast 508 585 39,000  Level Memphis Center
Tue 12:03:53 PM 33.9233 -90.8903 56° Northeast 508 585 39,000  Level Memphis Center
Tue 12:04:53 PM 33.9967 -90.7656 55° Northeast 503 579 39,000  Level Memphis Center
Tue 12:05:53 PM 34.0744 -90.6231 57° Northeast 508 585 39,000  Level Memphis Center
Tue 12:06:53 PM 34.1539 -90.4778 57° Northeast 508 585 39,000  Level Memphis Center
Tue 12:07:53 PM 34.2292 -90.3369 57° Northeast 503 579 39,000  Level Memphis Center
Tue 12:08:53 PM 34.3083 -90.1936 56° Northeast 503 579 39,000  Level Memphis Center
Tue 12:09:53 PM 34.3831 -90.0550 57° Northeast 503 579 39,000  Level Memphis Center
Tue 12:10:53 PM 34.4600 -89.9114 57° Northeast 503 579 39,000  Level Memphis Center
Tue 12:11:53 PM 34.5364 -89.7697 57° Northeast 503 579 39,000  Level Memphis Center
Tue 12:12:53 PM 34.6128 -89.6253 57° Northeast 503 579 39,000  Level Memphis Center
Tue 12:13:53 PM 34.6892 -89.4806 57° Northeast 503 579 39,000  Level Memphis Center
Tue 12:14:53 PM 34.7672 -89.3358 57° Northeast 503 579 39,000  Level Memphis Center
Tue 12:15:53 PM 34.8453 -89.1956 56° Northeast 503 579 39,000  Level Memphis Center
Tue 12:16:53 PM 34.9272 -89.0425 57° Northeast 498 573 39,000  Level Memphis Center
Tue 12:17:53 PM 35.0028 -88.8994 57° Northeast 498 573 39,000  Level Memphis Center
Tue 12:18:53 PM 35.0783 -88.7586 57° Northeast 498 573 39,000  Level Memphis Center
Tue 12:19:53 PM 35.1536 -88.6147 57° Northeast 498 573 39,000  Level Memphis Center
Tue 12:20:53 PM 35.2125 -88.5017 57° Northeast 493 567 39,000  Level Memphis Center
Tue 12:21:53 PM 35.2936 -88.3525 56° Northeast 488 562 39,000  Level Memphis Center
Tue 12:22:53 PM 35.3683 -88.2081 58° Northeast 488 562 39,000  Level Memphis Center
Tue 12:23:53 PM 35.4511 -88.0506 57° Northeast 493 567 39,000  Level Memphis Center
Tue 12:24:53 PM 35.5233 -87.9081 58° Northeast 493 567 39,000  Level Memphis Center
Tue 12:25:53 PM 35.5956 -87.7631 58° Northeast 493 567 39,000  Level Memphis Center
Tue 12:26:53 PM 35.6675 -87.6178 59° Northeast 493 567 39,000  Level Memphis Center
Tue 12:27:53 PM 35.7394 -87.4772 58° Northeast 493 567 39,000  Level Memphis Center
Tue 12:28:53 PM 35.8044 -87.3264 62° Northeast 493 567 39,000  Level Memphis Center
Tue 12:29:53 PM 35.8553 -87.1889 65° Northeast 487 560 39,000  Level Memphis Center
Tue 12:30:53 PM 35.9133 -87.0150 68° East 492 566 39,000  Level Memphis Center
Tue 12:31:53 PM 35.9672 -86.8561 67° East 492 566 39,000  Level Memphis Center
Tue 12:32:53 PM 36.0192 -86.7000 68° East 492 566 39,000  Level Memphis Center
Tue 12:33:53 PM 36.0750 -86.5433 66° East 492 566 39,000  Level Memphis Center
Tue 12:34:53 PM 36.1228 -86.4050 67° East 492 566 39,000  Level Memphis Center
Tue 12:35:53 PM 36.1781 -86.2456 67° East 492 566 39,000  Level Memphis Center
Tue 12:36:53 PM 36.2311 -86.0911 67° East 492 566 39,000  Level Memphis Center
Tue 12:39:24 PM 36.3669 -85.6947 67° East 488 562 39,000  Level Indianapolis Center
Tue 12:40:25 PM 36.4217 -85.5317 67° East 504 580 39,000  Level Indianapolis Center
Tue 12:41:27 PM 36.4747 -85.3717 68° East 499 574 39,000  Level Indianapolis Center
Tue 12:42:28 PM 36.5272 -85.2114 68° East 496 571 39,000  Level Indianapolis Center
Tue 12:43:30 PM 36.5792 -85.0517 68° East 496 571 39,000  Level Indianapolis Center
Tue 12:44:31 PM 36.6300 -84.8919 68° East 493 567 39,000  Level Indianapolis Center
Tue 12:45:33 PM 36.6931 -84.6989 68° East 497 572 39,000  Level Indianapolis Center
Tue 12:46:35 PM 36.7439 -84.5381 68° East 498 573 39,000  Level Indianapolis Center
Tue 12:47:36 PM 36.7906 -84.3964 68° East 494 568 39,000  Level Indianapolis Center
Tue 12:48:38 PM 36.8492 -84.2075 69° East 496 571 39,000  Level Indianapolis Center
Tue 12:49:39 PM 36.9019 -84.0464 68° East 500 575 39,000  Level Indianapolis Center
Tue 12:50:41 PM 36.9531 -83.8844 68° East 498 573 39,000  Level Indianapolis Center
Tue 12:51:43 PM 37.0050 -83.7225 68° East 499 574 39,000  Level Indianapolis Center
Tue 12:52:44 PM 37.0556 -83.5592 69° East 500 575 39,000  Level Indianapolis Center
Tue 12:53:46 PM 37.1058 -83.3969 69° East 497 572 39,000  Level Indianapolis Center
Tue 12:54:48 PM 37.1569 -83.2350 68° East 496 571 39,000  Level Indianapolis Center
Tue 12:55:49 PM 37.2067 -83.0719 69° East 496 571 39,000  Level Indianapolis Center
Tue 12:56:51 PM 37.2572 -82.9064 69° East 499 574 39,000  Level Indianapolis Center
Tue 12:57:53 PM 37.3142 -82.7167 69° East 496 571 39,000  Level Indianapolis Center
Tue 12:58:54 PM 37.3633 -82.5536 69° East 495 570 39,000  Level Indianapolis Center
Tue 12:59:56 PM 37.4131 -82.3900 69° East 497 572 39,000  Level Indianapolis Center
Tue 01:00:58 PM 37.4619 -82.2253 69° East 501 577 39,000  Level Indianapolis Center
Tue 01:01:59 PM 37.5097 -82.0619 70° East 498 573 39,000  Level Indianapolis Center
Tue 01:03:01 PM 37.5583 -81.8986 69° East 498 573 39,000  Level Indianapolis Center
Tue 01:04:03 PM 37.6056 -81.7331 70° East 499 574 39,000  Level Indianapolis Center
Tue 01:05:04 PM 37.6542 -81.5683 70° East 501 577 39,000  Level Indianapolis Center
Tue 01:06:06 PM 37.7061 -81.3861 70° East 497 572 39,000  Level Indianapolis Center
Tue 01:07:08 PM 37.7514 -81.2264 70° East 497 572 39,000  Level Indianapolis Center
Tue 01:08:09 PM 37.7889 -81.0636 74° East 497 572 39,000  Level Indianapolis Center
Tue 01:08:33 PM 37.7961 -80.9717 84° East 505 581 39,000  Level Washington Center
Tue 01:09:33 PM 37.8181 -80.8022 81° East 500 575 39,000  Level Washington Center
Tue 01:10:33 PM 37.8381 -80.6275 82° East 500 575 39,000  Level Washington Center
Tue 01:11:33 PM 37.8578 -80.4553 82° East 500 575 39,000  Level Washington Center
Tue 01:12:33 PM 37.9011 -80.3078 70° East 500 575 39,000  Level Washington Center
Tue 01:13:33 PM 37.9614 -80.1564 63° Northeast 488 562 39,000  Level Washington Center
Tue 01:14:33 PM 38.0214 -80.0017 64° Northeast 488 562 39,000  Level Washington Center
Tue 01:15:33 PM 38.0811 -79.8469 64° Northeast 488 562 39,000 -50 Level Washington Center
Tue 01:16:33 PM 38.1408 -79.6919 64° Northeast 488 562 38,900 -650 Descending Washington Center
Tue 01:17:33 PM 38.2069 -79.5211 64° Northeast 483 556 37,700 -1,700 Descending Washington Center
Tue 01:18:33 PM 38.2639 -79.3681 65° Northeast 478 550 35,500 -3,300 Descending Washington Center
Tue 01:19:33 PM 38.3067 -79.1983 72° East 485 558 31,100 -3,750 Descending Washington Center
Tue 01:20:33 PM 38.3492 -79.0308 72° East 490 564 28,000 -1,700 Descending Washington Center
Tue 01:21:33 PM 38.3892 -78.8711 72° East 485 558 27,700 -600 Descending Washington Center
Tue 01:22:33 PM 38.4264 -78.7217 72° East 457 526 26,800 -850 Descending Washington Center
Tue 01:23:33 PM 38.4633 -78.5853 71° East 446 513 26,000 -400 Descending Washington Center
Tue 01:24:33 PM 38.5050 -78.4200 72° East 437 503 26,000 -250 Level Washington Center
Tue 01:25:33 PM 38.5417 -78.2728 72° East 437 503 25,500 -1,550 Descending Washington Center
Tue 01:26:33 PM 38.5758 -78.1331 73° East 443 510 22,900 -2,500 Descending Washington Center
Tue 01:27:33 PM 38.6147 -77.9722 73° East 432 497 20,500 -1,950 Descending Washington Center
Tue 01:28:33 PM 38.6422 -77.8403 75° East 426 490 19,000 -750 Descending Washington Center
Tue 01:29:33 PM 38.6533 -77.6864 85° East 406 467 19,000 -321 Level Washington Center
Tue 01:30:25 PM 38.6667 -77.5667 82° East 401 461 18,400 -1,286 Descending Potomac TRACON
Tue 01:31:25 PM 38.6667 -77.4167 90° East 388 447 16,600 -1,263 Descending Potomac TRACON
Tue 01:32:19 PM 38.6833 -77.3000 80° East 378 435 16,000 -1,263 Descending Potomac TRACON
Tue 01:33:19 PM 38.6833 -77.1667 90° East 370 426 14,200 -1,900 Descending Potomac TRACON
Tue 01:34:19 PM 38.6833 -77.0333 90° East 360 414 12,200 -1,842 Descending Potomac TRACON
Tue 01:35:13 PM 38.7000 -76.9333 78° East 351 404 10,700 -1,263 Descending Potomac TRACON
Tue 01:36:13 PM 38.7000 -76.8167 90° East 322 371 9,800 -975 Descending Potomac TRACON
Tue 01:36:33 PM 38.7011 -76.7781 88° East 332 382 9,400 -1,148 Descending Washington Center
Tue 01:38:08 PM 38.7500 -76.6333 67° East 294 338 7,600 -1,316 Descending Potomac TRACON
Tue 01:39:08 PM 38.8000 -76.5333 57° Northeast 303 349 6,000 -1,250 Descending Potomac TRACON
Tue 01:40:08 PM 38.8833 -76.5500 351° North 277 319 5,100 -850 Descending Potomac TRACON
Tue 01:41:08 PM 38.9500 -76.5833 339° North 278 320 4,300 -579 Descending Potomac TRACON
Tue 01:42:02 PM 39.0000 -76.6500 314° West 265 305 4,000 -579 Descending Potomac TRACON
Tue 01:43:02 PM 39.0333 -76.7333 297° West 271 312 3,200 -500 Descending Potomac TRACON
Tue 01:44:02 PM 39.0667 -76.8000 303° West 239 275 3,000 -94 Descending Potomac TRACON
Tue 01:45:09 PM 39.1000 -76.8833 297° West 223 257 3,000 -331 Level Potomac TRACON
Tue 01:46:09 PM 39.1500 -76.8833 360° North 225 259 2,300 -789 Descending Potomac TRACON
Tue 01:47:03 PM 39.1833 -76.8167 57° Northeast 200 230 1,500 -579 Descending Potomac TRACON
Tue 01:48:03 PM 39.1833 -76.7500 90° East 174 200 1,200 -550 Descending Potomac TRACON
Tue 01:49:03 PM 39.1833 -76.7000 90° East 144 166 400 -800 Descending Potomac TRACON
Tue 01:51:00 PM 39.1667 -76.6667 339° North  Level FlightAware
Tue 01:58:00 PM 39.1754 -76.6683 339° North  Level Estimated

Login

Don't have an account? Register now (free) for customized features, flight alerts, and more!